Country
Station

 

Weather  for  Long Beach, Long Beach Airport  -  United States    United States

  
10 °C (50 °F)
    
 
 

Current METAR for Long Beach, Long Beach Airport is :

KLGB 121453Z 00000KT 9SM FEW008 10/08 A3021 RMK AO2 SLP231 T01000083 53010

 

This is a report for Long Beach, Long Beach Airport - United States.
 
The report was made 6 minutes ago, at 14:53 UTC .
The wind was calm.
 
The temperature was 10 °C (50 °F), with a dew-point at 8 °C (46 °F).
The atmospheric pressure was 1023 hPa (30.21 inHg).
The relative humidity was 87.4%.
 
There were a few clouds at a height of 244 meters (800 feet).
 
The overall visibility was 14.5 kilometers (9.0 miles).
 

 
 
 
 

Country :   A   B   C   D   E   F   G   H   I   J   K   L   M   N   O   P   Q   R   S   T   U   V   W   Y   Z

 

Site Info  |  Disclaimer  |  Credits  |  Privacy
Contact us  |  Add to favorites
© 2013-2019 METARs - All rights reserved